Terminal Aerodrome Forecast
Issued by NWS

Home | Current Version | Previous Version | Text Only | Print | Product List | Glossary Off
Versions: 1 2 3 4 5 6 7 8 9 10 11 12 13 14 15 16 17

000
FTUS41 KCLE 231400 AAB
TAFFDY
TAF AMD
KFDY 231400Z 2314/2412 24006KT P6SM SCT018
      TEMPO 2314/2316 BKN018
     FM231600 35010KT P6SM OVC020
     FM232000 01011KT P6SM BKN035
     FM232300 02011KT P6SM SCT040
     FM240400 03006KT P6SM SKC=

USA.gov is the U.S. government's official web portal to all federal, state and local government web resources and services.